createdAt,value
2022-08-04T00:02:23.244Z,27.29
2022-08-04T00:05:03.661Z,27.28
2022-08-04T00:07:43.928Z,27.29
2022-08-04T00:10:11.880Z,27.29
2022-08-04T00:12:42.555Z,27.29
2022-08-04T00:15:11.099Z,27.29
2022-08-04T00:17:46.031Z,27.28
2022-08-04T00:20:17.910Z,27.28
2022-08-04T00:22:45.540Z,27.27
2022-08-04T00:25:12.287Z,27.29
2022-08-04T00:27:38.940Z,27.28
2022-08-04T00:30:06.675Z,27.27
2022-08-04T00:32:34.497Z,27.27
2022-08-04T00:35:01.680Z,27.27
2022-08-04T00:37:28.300Z,27.27
2022-08-04T00:39:55.153Z,27.28
2022-08-04T00:42:58.577Z,27.26
2022-08-04T00:46:15.525Z,27.27
2022-08-04T00:48:49.559Z,27.26
2022-08-04T00:51:45.078Z,27.27
2022-08-04T00:54:14.588Z,27.26
2022-08-04T00:56:50.240Z,27.26
2022-08-04T00:59:35.856Z,27.26
2022-08-04T01:02:31.635Z,27.25
2022-08-04T01:05:25.919Z,27.25
2022-08-04T01:08:11.085Z,27.27
2022-08-04T01:10:43.328Z,27.25
2022-08-04T01:14:01.010Z,27.26
2022-08-04T01:16:27.745Z,27.24
2022-08-04T01:19:00.825Z,27.25
2022-08-04T01:21:30.196Z,27.24
2022-08-04T01:24:34.594Z,27.25
2022-08-04T01:27:36.956Z,27.25
2022-08-04T01:30:06.256Z,27.24
2022-08-04T01:32:59.152Z,27.23
2022-08-04T01:35:47.725Z,27.22
2022-08-04T01:38:37.088Z,27.22
2022-08-04T01:41:05.401Z,27.21
2022-08-04T01:43:33.355Z,27.21
2022-08-04T01:46:01.928Z,27.21
2022-08-04T01:48:28.883Z,27.20
2022-08-04T01:51:13.444Z,27.21
2022-08-04T01:53:41.580Z,27.22
2022-08-04T01:56:10.077Z,27.21
2022-08-04T01:58:37.847Z,27.21
2022-08-04T02:01:08.349Z,27.18
2022-08-04T02:04:19.481Z,27.20
2022-08-04T02:06:31.815Z,27.20
2022-08-04T02:09:08.900Z,27.19
2022-08-04T02:11:35.556Z,27.19
2022-08-04T02:14:14.043Z,27.19
2022-08-04T02:16:52.332Z,27.19
2022-08-04T02:19:29.356Z,27.19
2022-08-04T02:22:16.832Z,27.19
2022-08-04T02:24:47.337Z,27.19
2022-08-04T02:27:14.512Z,27.18
2022-08-04T02:29:46.396Z,27.19
2022-08-04T02:32:22.214Z,27.17
2022-08-04T02:34:48.725Z,27.18
2022-08-04T02:37:18.899Z,27.18
2022-08-04T02:39:48.577Z,27.18
2022-08-04T02:42:15.979Z,27.17
2022-08-04T02:44:42.571Z,27.16
2022-08-04T02:47:09.257Z,27.17
2022-08-04T02:49:36.407Z,27.16
2022-08-04T02:52:07.228Z,27.16
2022-08-04T02:54:40.281Z,27.17
2022-08-04T02:57:11.456Z,27.16
2022-08-04T02:59:46.806Z,27.17
2022-08-04T03:02:13.604Z,27.15
2022-08-04T03:04:50.409Z,27.14
2022-08-04T03:07:32.229Z,27.15
2022-08-04T03:10:21.431Z,27.15
2022-08-04T03:13:09.588Z,27.14
2022-08-04T03:15:49.028Z,27.14
2022-08-04T03:18:37.507Z,27.13
2022-08-04T03:21:28.049Z,27.14
2022-08-04T03:24:19.885Z,27.14
2022-08-04T03:26:55.255Z,27.13
2022-08-04T03:29:40.549Z,27.13
2022-08-04T03:32:40.819Z,27.13
2022-08-04T03:35:42.853Z,27.13
2022-08-04T03:38:15.260Z,27.12
2022-08-04T03:41:02.837Z,27.13
2022-08-04T03:43:59.439Z,27.13
2022-08-04T03:46:36.167Z,27.12
2022-08-04T03:49:37.082Z,27.13
2022-08-04T03:52:24.935Z,27.13
2022-08-04T03:55:03.440Z,27.13
2022-08-04T03:57:35.909Z,27.14
2022-08-04T04:00:08.964Z,27.14
2022-08-04T04:02:52.512Z,27.15
2022-08-04T04:05:59.711Z,27.22
2022-08-04T04:08:49.622Z,27.25
2022-08-04T04:11:19.070Z,27.30
2022-08-04T04:13:58.596Z,27.33
2022-08-04T04:16:27.941Z,27.34
2022-08-04T04:19:31.191Z,27.33
2022-08-04T04:22:16.316Z,27.29
2022-08-04T04:24:45.740Z,27.28
2022-08-04T04:27:30.667Z,27.28
2022-08-04T04:30:10.931Z,27.25
2022-08-04T04:33:02.253Z,27.26
2022-08-04T04:35:47.162Z,27.27
2022-08-04T04:38:52.405Z,27.28
2022-08-04T04:41:45.639Z,27.30
2022-08-04T04:44:15.726Z,27.28
2022-08-04T04:48:07.097Z,27.28
2022-08-04T04:50:45.221Z,27.27
2022-08-04T04:54:00.494Z,27.26
2022-08-04T04:56:45.580Z,27.28
2022-08-04T04:59:15.606Z,27.26
2022-08-04T05:02:07.463Z,27.27
2022-08-04T05:04:59.856Z,27.28
2022-08-04T05:07:35.621Z,27.29
2022-08-04T05:10:16.807Z,27.28
2022-08-04T05:14:38.494Z,27.29
2022-08-04T05:15:57.971Z,27.30
2022-08-04T05:18:26.955Z,27.31
2022-08-04T05:20:58.671Z,27.32
2022-08-04T05:23:26.923Z,27.32
2022-08-04T05:25:59.199Z,27.33
2022-08-04T05:28:39.985Z,27.33
2022-08-04T05:31:12.733Z,27.37
2022-08-04T05:33:40.801Z,27.44
2022-08-04T05:36:20.598Z,27.53
2022-08-04T05:38:51.599Z,27.61
2022-08-04T05:41:18.329Z,27.67
2022-08-04T05:43:45.054Z,27.70
2022-08-04T05:46:12.192Z,27.72
2022-08-04T05:48:39.050Z,27.74
2022-08-04T05:51:05.684Z,27.76
2022-08-04T05:53:34.587Z,27.78
2022-08-04T05:56:01.534Z,27.80
2022-08-04T05:58:30.477Z,27.82
2022-08-04T06:00:58.334Z,27.84
2022-08-04T06:03:24.953Z,27.86
2022-08-04T06:05:51.575Z,27.89
2022-08-04T06:08:18.231Z,27.85
2022-08-04T06:10:44.916Z,27.77
2022-08-04T06:13:49.325Z,27.73
2022-08-04T06:15:59.414Z,27.74
2022-08-04T06:18:35.585Z,27.72
2022-08-04T06:21:15.940Z,27.68
2022-08-04T06:23:53.265Z,27.62
2022-08-04T06:26:24.695Z,27.59
2022-08-04T06:28:53.063Z,27.59
2022-08-04T06:32:27.332Z,27.57
2022-08-04T06:34:18.997Z,27.66
2022-08-04T06:36:45.678Z,27.72
2022-08-04T06:39:12.279Z,27.74
2022-08-04T06:41:55.322Z,27.70
2022-08-04T06:44:26.378Z,27.68
2022-08-04T06:46:53.072Z,27.63
2022-08-04T06:49:19.704Z,27.62
2022-08-04T06:51:49.291Z,27.60
2022-08-04T06:54:16.271Z,27.59
2022-08-04T06:56:43.573Z,27.57
2022-08-04T06:59:10.221Z,27.56
2022-08-04T07:01:37.038Z,27.54
2022-08-04T07:04:04.420Z,27.54
2022-08-04T07:06:31.121Z,27.54
2022-08-04T07:08:59.636Z,27.54
2022-08-04T07:11:26.482Z,27.54
2022-08-04T07:13:53.142Z,27.53
2022-08-04T07:16:20.811Z,27.55
2022-08-04T07:18:57.280Z,27.63
2022-08-04T07:21:24.101Z,27.66
2022-08-04T07:23:51.188Z,27.72
2022-08-04T07:26:19.195Z,27.74
2022-08-04T07:28:47.392Z,27.75
2022-08-04T07:31:31.870Z,27.71
2022-08-04T07:34:20.900Z,27.67
2022-08-04T07:36:55.709Z,27.67
2022-08-04T07:39:29.016Z,27.69
2022-08-04T07:41:56.972Z,27.71
2022-08-04T07:44:23.601Z,27.72
2022-08-04T07:46:50.223Z,27.67
2022-08-04T07:49:54.703Z,27.66
2022-08-04T07:52:05.016Z,27.71
2022-08-04T07:54:31.629Z,27.74
2022-08-04T07:56:58.256Z,27.75
2022-08-04T07:59:24.990Z,27.73
2022-08-04T08:01:51.616Z,27.69
2022-08-04T08:04:18.223Z,27.65
2022-08-04T08:06:44.951Z,27.65
2022-08-04T08:09:15.706Z,27.62
2022-08-04T08:12:38.227Z,27.63
2022-08-04T08:14:30.463Z,27.68
2022-08-04T08:16:59.208Z,27.70
2022-08-04T08:19:25.960Z,27.72
2022-08-04T08:21:59.627Z,27.70
2022-08-04T08:24:30.579Z,27.71
2022-08-04T08:26:57.576Z,27.69
2022-08-04T08:29:25.673Z,27.70
2022-08-04T08:31:58.234Z,27.68
2022-08-04T08:34:29.205Z,27.69
2022-08-04T08:37:09.811Z,27.70
2022-08-04T08:39:40.633Z,27.69
2022-08-04T08:42:35.124Z,27.69
2022-08-04T08:45:22.615Z,27.71
2022-08-04T08:48:11.097Z,27.68
2022-08-04T08:50:50.790Z,27.67
2022-08-04T08:53:20.006Z,27.66
2022-08-04T08:56:13.225Z,27.65
2022-08-04T08:59:16.183Z,27.66
2022-08-04T09:01:58.044Z,27.66
2022-08-04T09:04:42.996Z,27.68
2022-08-04T09:07:28.098Z,27.69
2022-08-04T09:09:57.557Z,27.67
2022-08-04T09:12:30.676Z,27.66
2022-08-04T09:15:22.603Z,27.66
2022-08-04T09:17:55.557Z,27.67
2022-08-04T09:20:39.530Z,27.66
2022-08-04T09:23:17.257Z,27.65
2022-08-04T09:26:06.112Z,27.66
2022-08-04T09:28:55.595Z,27.68
2022-08-04T09:31:49.031Z,27.68
2022-08-04T09:35:03.422Z,27.69
2022-08-04T09:37:45.888Z,27.69
2022-08-04T09:40:31.646Z,27.67
2022-08-04T09:43:57.174Z,27.69
2022-08-04T09:46:16.613Z,27.69
2022-08-04T09:48:48.531Z,27.69
2022-08-04T09:51:58.361Z,27.69
2022-08-04T09:54:40.925Z,27.69
2022-08-04T09:57:14.390Z,27.70
2022-08-04T10:00:05.481Z,27.70
2022-08-04T10:02:52.620Z,27.70
2022-08-04T10:05:44.953Z,27.69
2022-08-04T10:08:33.499Z,27.68
2022-08-04T10:11:16.969Z,27.71
2022-08-04T10:14:00.022Z,27.70
2022-08-04T10:16:38.339Z,27.70
2022-08-04T10:19:22.233Z,27.68
2022-08-04T10:22:29.130Z,27.69
2022-08-04T10:26:02.803Z,27.67
2022-08-04T10:28:17.205Z,27.66
2022-08-04T10:30:52.053Z,27.66
2022-08-04T10:33:23.776Z,27.66
2022-08-04T10:36:09.968Z,27.66
2022-08-04T10:39:42.631Z,27.66
2022-08-04T10:42:17.164Z,27.63
2022-08-04T10:45:01.162Z,27.62
2022-08-04T10:47:44.688Z,27.62
2022-08-04T10:50:19.921Z,27.62
2022-08-04T10:52:50.393Z,27.63
2022-08-04T10:55:19.074Z,27.63
2022-08-04T10:58:05.480Z,27.63
2022-08-04T11:00:33.044Z,27.63
2022-08-04T11:03:15.803Z,27.63
2022-08-04T11:05:49.682Z,27.62
2022-08-04T11:08:20.742Z,27.65
2022-08-04T11:11:03.490Z,27.63
2022-08-04T11:13:34.272Z,27.63
2022-08-04T11:16:02.757Z,27.65
2022-08-04T11:19:04.024Z,27.63
2022-08-04T11:21:33.393Z,27.63
2022-08-04T11:24:03.928Z,27.62
2022-08-04T11:26:58.472Z,27.62
2022-08-04T11:29:52.167Z,27.62
2022-08-04T11:32:27.021Z,27.63
2022-08-04T11:34:57.240Z,27.62
2022-08-04T11:37:42.001Z,27.63
2022-08-04T11:40:24.903Z,27.63
2022-08-04T11:43:01.134Z,27.63
2022-08-04T11:45:40.951Z,27.63
2022-08-04T11:48:11.195Z,27.65
2022-08-04T11:50:41.557Z,27.63
2022-08-04T11:53:09.663Z,27.63
2022-08-04T11:56:08.100Z,27.64
2022-08-04T11:58:22.949Z,27.63
2022-08-04T12:01:00.859Z,27.63
2022-08-04T12:04:03.731Z,27.63
2022-08-04T12:06:38.640Z,27.63
2022-08-04T12:09:10.330Z,27.63
2022-08-04T12:11:55.118Z,27.65
2022-08-04T12:14:39.465Z,27.62
2022-08-04T12:17:06.449Z,27.63
2022-08-04T12:20:03.491Z,27.63
2022-08-04T12:22:41.074Z,27.63
2022-08-04T12:25:09.879Z,27.63
2022-08-04T12:27:40.293Z,27.63
2022-08-04T12:31:00.157Z,27.62
2022-08-04T12:33:17.929Z,27.62
2022-08-04T12:36:11.649Z,27.65
2022-08-04T12:38:42.615Z,27.62
2022-08-04T12:41:09.328Z,27.62
2022-08-04T12:43:42.137Z,27.62
2022-08-04T12:46:21.704Z,27.62
2022-08-04T12:48:48.342Z,27.61
2022-08-04T12:52:06.419Z,27.61
2022-08-04T12:54:01.636Z,27.61
2022-08-04T12:56:28.400Z,27.60
2022-08-04T12:59:01.715Z,27.60
2022-08-04T13:02:08.921Z,27.60
2022-08-04T13:04:24.557Z,27.60
2022-08-04T13:07:04.528Z,27.59
2022-08-04T13:09:36.848Z,27.60
2022-08-04T13:12:16.637Z,27.62
2022-08-04T13:14:45.994Z,27.60
2022-08-04T13:17:12.804Z,27.61
2022-08-04T13:19:41.592Z,27.60
2022-08-04T13:22:08.678Z,27.60
2022-08-04T13:24:56.835Z,27.60
2022-08-04T13:27:22.912Z,27.60
2022-08-04T13:29:59.430Z,27.60
2022-08-04T13:32:27.870Z,27.60
2022-08-04T13:34:55.300Z,27.59
2022-08-04T13:37:30.675Z,27.60
2022-08-04T13:39:57.260Z,27.59
2022-08-04T13:42:25.077Z,27.60
2022-08-04T13:44:54.790Z,27.60
2022-08-04T13:47:28.147Z,27.59
2022-08-04T13:50:17.647Z,27.61
2022-08-04T13:52:45.971Z,27.60
2022-08-04T13:55:22.604Z,27.61
2022-08-04T13:57:52.897Z,27.61
2022-08-04T14:00:29.984Z,27.61
2022-08-04T14:03:03.229Z,27.59
2022-08-04T14:05:36.722Z,27.60
2022-08-04T14:08:26.290Z,27.61
2022-08-04T14:10:55.387Z,27.61
2022-08-04T14:13:41.270Z,27.62
2022-08-04T14:16:19.811Z,27.61
2022-08-04T14:18:46.540Z,27.62
2022-08-04T14:21:17.332Z,27.61
2022-08-04T14:23:57.748Z,27.62
2022-08-04T14:26:32.521Z,27.62
2022-08-04T14:29:26.290Z,27.63
2022-08-04T14:32:00.387Z,27.63
2022-08-04T14:34:28.356Z,27.61
2022-08-04T14:37:16.598Z,27.62
2022-08-04T14:40:18.909Z,27.62
2022-08-04T14:42:55.345Z,27.62
2022-08-04T14:45:53.967Z,27.62
2022-08-04T14:48:22.090Z,27.63
2022-08-04T14:50:49.373Z,27.65
2022-08-04T14:53:20.659Z,27.63
2022-08-04T14:55:49.932Z,27.65
2022-08-04T14:58:34.215Z,27.65
2022-08-04T15:01:10.806Z,27.66
2022-08-04T15:03:52.604Z,27.65
2022-08-04T15:06:27.003Z,27.63
2022-08-04T15:08:54.916Z,27.63
2022-08-04T15:11:23.556Z,27.63
2022-08-04T15:13:51.683Z,27.65
2022-08-04T15:16:18.396Z,27.62
2022-08-04T15:18:49.210Z,27.62
2022-08-04T15:21:16.572Z,27.62
2022-08-04T15:23:43.198Z,27.65
2022-08-04T15:26:13.990Z,27.64
2022-08-04T15:28:41.277Z,27.63
2022-08-04T15:32:03.427Z,27.63
2022-08-04T15:33:55.746Z,27.64
2022-08-04T15:36:32.639Z,27.65
2022-08-04T15:39:23.081Z,27.63
2022-08-04T15:42:12.975Z,27.63
2022-08-04T15:45:00.401Z,27.65
2022-08-04T15:47:27.388Z,27.63
2022-08-04T15:50:10.504Z,27.65
2022-08-04T15:53:00.605Z,27.66
2022-08-04T15:55:34.417Z,27.63
2022-08-04T15:58:05.135Z,27.63
2022-08-04T16:00:49.879Z,27.62
2022-08-04T16:03:58.020Z,27.62
2022-08-04T16:06:21.107Z,27.62
2022-08-04T16:08:58.018Z,27.62
2022-08-04T16:11:31.227Z,27.62
2022-08-04T16:13:58.679Z,27.62
2022-08-04T16:16:31.798Z,27.63
2022-08-04T16:19:08.325Z,27.63
2022-08-04T16:21:36.041Z,27.63
2022-08-04T16:24:17.564Z,27.63
2022-08-04T16:26:54.850Z,27.62
2022-08-04T16:29:22.907Z,27.63
2022-08-04T16:32:04.772Z,27.62
2022-08-04T16:34:48.002Z,27.63
2022-08-04T16:37:18.057Z,27.63
2022-08-04T16:39:49.885Z,27.62
2022-08-04T16:42:30.229Z,27.64
2022-08-04T16:45:08.853Z,27.63
2022-08-04T16:47:47.412Z,27.63
2022-08-04T16:50:17.458Z,27.62
2022-08-04T16:52:54.143Z,27.62
2022-08-04T16:55:24.237Z,27.63
2022-08-04T16:57:52.917Z,27.63
2022-08-04T17:00:34.552Z,27.63
2022-08-04T17:03:08.101Z,27.62
2022-08-04T17:05:39.465Z,27.61
2022-08-04T17:08:28.638Z,27.63
2022-08-04T17:10:53.614Z,27.63
2022-08-04T17:14:03.974Z,27.63
2022-08-04T17:16:23.850Z,27.61
2022-08-04T17:18:54.911Z,27.62
2022-08-04T17:21:31.046Z,27.61
2022-08-04T17:24:15.026Z,27.61
2022-08-04T17:26:45.254Z,27.61
2022-08-04T17:29:20.089Z,27.60
2022-08-04T17:31:46.897Z,27.62
2022-08-04T17:34:19.122Z,27.62
2022-08-04T17:36:47.617Z,27.62
2022-08-04T17:39:17.505Z,27.61
2022-08-04T17:44:37.665Z,27.60
2022-08-04T17:47:22.443Z,27.61
2022-08-04T17:49:52.839Z,27.62
2022-08-04T17:52:44.721Z,27.60
2022-08-04T17:55:16.323Z,27.61
2022-08-04T17:57:47.123Z,27.61
2022-08-04T18:00:19.926Z,27.62
2022-08-04T18:02:53.009Z,27.61
2022-08-04T18:05:27.370Z,27.60
2022-08-04T18:11:01.387Z,27.61
2022-08-04T18:13:28.425Z,27.61
2022-08-04T18:16:04.342Z,27.61
2022-08-04T18:18:30.973Z,27.61
2022-08-04T18:20:59.696Z,27.61
2022-08-04T18:23:32.874Z,27.61
2022-08-04T18:26:02.194Z,27.59
2022-08-04T18:28:33.092Z,27.61
2022-08-04T18:31:00.773Z,27.60
2022-08-04T18:33:40.840Z,27.61
2022-08-04T18:36:32.843Z,27.61
2022-08-04T18:39:12.881Z,27.61
2022-08-04T18:42:00.886Z,27.60
2022-08-04T18:44:29.407Z,27.60
2022-08-04T18:46:57.563Z,27.60
2022-08-04T18:50:59.887Z,27.60
2022-08-04T18:52:30.769Z,27.60
2022-08-04T18:54:57.402Z,27.60
2022-08-04T18:57:58.915Z,27.60
2022-08-04T19:00:15.879Z,27.61
2022-08-04T19:02:42.503Z,27.59
2022-08-04T19:05:17.466Z,27.62
2022-08-04T19:08:02.212Z,27.60
2022-08-04T19:10:32.610Z,27.59
2022-08-04T19:13:01.404Z,27.59
2022-08-04T19:15:34.481Z,27.59
2022-08-04T19:18:01.914Z,27.60
2022-08-04T19:20:29.410Z,27.60
2022-08-04T19:24:28.244Z,27.59
2022-08-04T19:26:02.610Z,27.59
2022-08-04T19:28:33.997Z,27.59
2022-08-04T19:31:08.748Z,27.58
2022-08-04T19:33:58.067Z,27.58
2022-08-04T19:36:27.821Z,27.59
2022-08-04T19:38:59.894Z,27.58
2022-08-04T19:41:27.340Z,27.59
2022-08-04T19:43:54.630Z,27.59
2022-08-04T19:46:21.560Z,27.58
2022-08-04T19:49:00.102Z,27.58
2022-08-04T19:51:30.534Z,27.57
2022-08-04T19:54:04.087Z,27.59
2022-08-04T19:56:39.898Z,27.60
2022-08-04T19:59:08.889Z,27.58
2022-08-04T20:01:44.935Z,27.58
2022-08-04T20:04:12.786Z,27.57
2022-08-04T20:06:39.626Z,27.58
2022-08-04T20:09:26.350Z,27.59
2022-08-04T20:11:53.213Z,27.59
2022-08-04T20:14:31.113Z,27.57
2022-08-04T20:17:00.236Z,27.57
2022-08-04T20:19:27.004Z,27.58
2022-08-04T20:21:56.503Z,27.56
2022-08-04T20:24:37.560Z,27.57
2022-08-04T20:27:38.552Z,27.57
2022-08-04T20:29:59.556Z,27.57
2022-08-04T20:32:27.594Z,27.57
2022-08-04T20:34:55.696Z,27.57
2022-08-04T20:37:23.406Z,27.57
2022-08-04T20:39:57.225Z,27.58
2022-08-04T20:42:27.476Z,27.56
2022-08-04T20:45:00.176Z,27.57
2022-08-04T20:47:35.108Z,27.57
2022-08-04T20:50:05.843Z,27.56
2022-08-04T20:52:37.710Z,27.57
2022-08-04T20:55:04.971Z,27.57
2022-08-04T20:57:48.858Z,27.57
2022-08-04T21:00:17.618Z,27.57
2022-08-04T21:02:53.385Z,27.55
2022-08-04T21:05:20.415Z,27.56
2022-08-04T21:07:48.944Z,27.57
2022-08-04T21:10:17.025Z,27.56
2022-08-04T21:12:43.844Z,27.56
2022-08-04T21:15:24.912Z,27.57
2022-08-04T21:17:59.191Z,27.57
2022-08-04T21:20:31.473Z,27.56
2022-08-04T21:22:59.516Z,27.58
2022-08-04T21:25:28.509Z,27.56
2022-08-04T21:27:55.633Z,27.55
2022-08-04T21:30:26.661Z,27.57
2022-08-04T21:32:55.425Z,27.55
2022-08-04T21:35:30.133Z,27.56
2022-08-04T21:38:03.907Z,27.57
2022-08-04T21:40:50.001Z,27.56
2022-08-04T21:43:20.801Z,27.57
2022-08-04T21:45:50.557Z,27.56
2022-08-04T21:48:17.213Z,27.56
2022-08-04T21:50:44.076Z,27.55
2022-08-04T21:53:19.705Z,27.54
2022-08-04T21:56:06.671Z,27.56
2022-08-04T21:58:35.059Z,27.56
2022-08-04T22:01:12.973Z,27.54
2022-08-04T22:03:52.351Z,27.56
2022-08-04T22:06:20.820Z,27.55
2022-08-04T22:08:54.786Z,27.53
2022-08-04T22:11:49.159Z,27.55
2022-08-04T22:14:17.219Z,27.56
2022-08-04T22:16:45.248Z,27.55
2022-08-04T22:19:12.000Z,27.54
2022-08-04T22:24:26.932Z,27.54
2022-08-04T22:26:56.668Z,27.56
2022-08-04T22:29:23.314Z,27.56
2022-08-04T22:31:56.908Z,27.55
2022-08-04T22:34:24.931Z,27.55
2022-08-04T22:36:52.526Z,27.54
2022-08-04T22:39:23.704Z,27.55
2022-08-04T22:42:03.789Z,27.56
2022-08-04T22:44:33.025Z,27.53
2022-08-04T22:47:00.236Z,27.53
2022-08-04T22:49:31.537Z,27.53
2022-08-04T22:51:58.891Z,27.54
2022-08-04T22:54:26.013Z,27.53
2022-08-04T22:56:55.294Z,27.54
2022-08-04T22:59:23.558Z,27.53
2022-08-04T23:02:01.275Z,27.54
2022-08-04T23:04:32.531Z,27.54
2022-08-04T23:06:59.763Z,27.55
2022-08-04T23:09:50.021Z,27.54
2022-08-04T23:12:28.915Z,27.53
2022-08-04T23:14:57.122Z,27.54
2022-08-04T23:17:24.728Z,27.54
2022-08-04T23:19:57.784Z,27.52
2022-08-04T23:22:42.178Z,27.52
2022-08-04T23:25:16.560Z,27.53
2022-08-04T23:27:48.243Z,27.52
2022-08-04T23:30:29.427Z,27.52
2022-08-04T23:32:56.659Z,27.53
2022-08-04T23:35:23.615Z,27.52
2022-08-04T23:37:57.150Z,27.52
2022-08-04T23:40:33.317Z,27.52
2022-08-04T23:43:16.956Z,27.52
2022-08-04T23:46:06.929Z,27.50
2022-08-04T23:48:39.164Z,27.52
2022-08-04T23:51:14.318Z,27.50
2022-08-04T23:53:42.201Z,27.50
2022-08-04T23:56:28.796Z,27.50
2022-08-04T23:58:55.902Z,27.49
